Terminal Aerodrome Forecast
Issued by NWS

Home | Current Version | Previous Version | Text Only | Print | Product List | Glossary On
Versions: 1 2 3 4 5 6 7 8 9 10 11 12 13 14 15 16 17 18 19 20 21 22 23 24 25 26 27 28
000
FTUS44 KHGX 261140
TAFCXO
TAF
KCXO 261140Z 2612/2712 11003KT P6SM SCT015 BKN025
      TEMPO 2615/2618 -SHRA
     FM261900 16011KT P6SM VCTS BKN025CB
      TEMPO 2620/2623 VRB20KT 4SM -TSRA OVC025CB
     FM270300 15008KT P6SM BKN020
     FM270700 16008KT P6SM BKN007 OVC012 PROB30 2707/2712 SHRA=

USA.gov is the U.S. government's official web portal to all federal, state and local government web resources and services.